Time;durP1;ratioP1;P1;durP2;ratioP2;P2;SDS_P1;SDS_P2;PMS_P1;PMS_P2;Temp;Humidity;BMP_temperature;BMP_pressure;BME280_temperature;BME280_humidity;BME280_pressure;Samples;Min_cycle;Max_cycle;Signal;HPM_P1;HPM_P2
2022/12/26 00:01:37;;;;;;;2.72;2.00;;;11.90;99.90;;;;;;5093595;28;20433;-76
2022/12/26 00:04:04;;;;;;;2.58;1.95;;;11.90;99.90;;;;;;5093221;28;20024;-77
2022/12/26 00:06:31;;;;;;;3.67;3.00;;;11.90;99.90;;;;;;5093393;28;20036;-77
2022/12/26 00:08:58;;;;;;;3.38;2.70;;;11.90;99.90;;;;;;5091872;28;20028;-77
2022/12/26 00:11:24;;;;;;;3.75;2.70;;;11.90;99.90;;;;;;5092672;28;20032;-77
2022/12/26 00:14:02;;;;;;;7.80;3.42;;;11.90;99.90;;;;;;5091891;28;20122;-77
2022/12/26 00:16:28;;;;;;;7.32;3.72;;;11.80;99.90;;;;;;5093233;28;20408;-78
2022/12/26 00:18:54;;;;;;;3.47;3.10;;;11.80;99.90;;;;;;5093003;28;20032;-78
2022/12/26 00:21:21;;;;;;;5.18;4.00;;;11.80;99.90;;;;;;5092216;28;20028;-77
2022/12/26 00:23:46;;;;;;;4.05;3.65;;;11.80;99.90;;;;;;5093278;28;20331;-77
2022/12/26 00:26:15;;;;;;;5.95;4.30;;;12.00;99.90;;;;;;5093416;28;20269;-77
2022/12/26 00:28:41;;;;;;;6.47;4.18;;;11.90;99.90;;;;;;5092841;28;20032;-77
2022/12/26 00:31:10;;;;;;;8.00;5.07;;;11.90;99.90;;;;;;5093283;28;20055;-77
2022/12/26 00:33:37;;;;;;;6.57;4.60;;;11.90;99.90;;;;;;5091563;28;20529;-78
2022/12/26 00:36:11;;;;;;;6.30;4.85;;;11.90;99.90;;;;;;5091521;28;20020;-78
2022/12/26 00:38:39;;;;;;;5.82;4.47;;;11.90;99.90;;;;;;5093140;28;20039;-77
2022/12/26 00:41:06;;;;;;;7.18;5.32;;;11.90;99.90;;;;;;5091568;28;20028;-78
2022/12/26 00:43:32;;;;;;;8.10;4.50;;;11.90;99.90;;;;;;5091505;28;20066;-77
2022/12/26 00:45:58;;;;;;;7.70;5.05;;;11.90;99.90;;;;;;5092864;28;20024;-77
2022/12/26 00:48:23;;;;;;;7.60;5.60;;;11.90;99.90;;;;;;5092596;28;20035;-78
2022/12/26 00:50:49;;;;;;;6.05;5.15;;;11.90;99.90;;;;;;5092521;28;20472;-77
2022/12/26 00:53:15;;;;;;;8.30;5.65;;;11.90;99.90;;;;;;5092756;28;20078;-78
2022/12/26 00:55:41;;;;;;;8.02;6.05;;;11.90;99.90;;;;;;5092556;28;20047;-78
2022/12/26 00:58:07;;;;;;;8.70;5.28;;;11.90;99.90;;;;;;5091124;28;20024;-78
2022/12/26 01:00:34;;;;;;;6.68;5.40;;;11.90;99.90;;;;;;5091401;28;20028;-79
2022/12/26 01:02:59;;;;;;;7.05;6.00;;;11.90;99.90;;;;;;5091354;28;20020;-77
2022/12/26 01:05:25;;;;;;;8.98;6.68;;;11.90;99.90;;;;;;5091588;28;20373;-77
2022/12/26 01:07:51;;;;;;;10.52;6.57;;;11.90;99.90;;;;;;5090861;28;20028;-79
2022/12/26 01:10:20;;;;;;;9.50;6.75;;;11.80;99.90;;;;;;5091931;28;20028;-80
2022/12/26 01:12:46;;;;;;;10.52;7.18;;;11.90;99.90;;;;;;5090355;28;20040;-78
2022/12/26 01:15:11;;;;;;;10.48;6.65;;;11.90;99.90;;;;;;5091660;28;20349;-76
2022/12/26 01:17:37;;;;;;;11.05;7.47;;;12.00;99.90;;;;;;5092114;28;20031;-77
2022/12/26 01:20:03;;;;;;;8.70;6.65;;;11.90;99.90;;;;;;5090497;28;20047;-77
2022/12/26 01:22:29;;;;;;;10.63;7.28;;;11.90;99.90;;;;;;5090286;28;20064;-76
2022/12/26 01:24:58;;;;;;;10.30;6.80;;;11.80;99.90;;;;;;5091586;28;20454;-77
2022/12/26 01:27:25;;;;;;;8.18;6.05;;;11.80;99.90;;;;;;5091464;28;20251;-77
2022/12/26 01:29:55;;;;;;;10.13;6.93;;;11.80;99.90;;;;;;5091496;28;20093;-76
2022/12/26 01:32:21;;;;;;;9.43;6.13;;;11.70;99.90;;;;;;5092008;28;20107;-78
2022/12/26 01:34:47;;;;;;;8.65;6.13;;;11.70;99.90;;;;;;5091291;28;20060;-77
2022/12/26 01:37:14;;;;;;;8.25;6.13;;;11.70;99.90;;;;;;5090352;28;20055;-76
2022/12/26 01:39:40;;;;;;;9.30;6.60;;;11.70;99.90;;;;;;5090252;28;20128;-75
2022/12/26 01:42:14;;;;;;;9.07;6.43;;;11.50;99.90;;;;;;5091384;28;20028;-78
2022/12/26 01:45:04;;;;;;;9.60;6.90;;;11.50;99.90;;;;;;5092272;28;20022;-78
2022/12/26 01:47:59;;;;;;;10.55;7.05;;;11.50;99.90;;;;;;5091398;28;20044;-77
2022/12/26 01:50:40;;;;;;;9.60;6.97;;;11.60;99.90;;;;;;5067458;28;20458;-77
2022/12/26 01:53:15;;;;;;;9.65;6.60;;;11.60;99.90;;;;;;5089953;28;20359;-77
2022/12/26 01:55:44;;;;;;;10.15;7.03;;;11.50;99.90;;;;;;5091018;28;20032;-76
2022/12/26 01:58:15;;;;;;;8.80;6.80;;;11.50;99.90;;;;;;5089968;28;20206;-76
2022/12/26 02:00:41;;;;;;;8.98;6.80;;;11.50;99.90;;;;;;5089895;28;20062;-78
2022/12/26 02:05:55;;;;;;;8.48;5.70;;;11.50;99.90;;;;;;5090806;28;20059;-77
2022/12/26 02:08:27;;;;;;;9.23;7.05;;;11.30;99.90;;;;;;5090204;28;20020;-75
2022/12/26 02:11:09;;;;;;;10.85;7.45;;;11.40;99.90;;;;;;5089838;28;20107;-76
2022/12/26 02:13:37;;;;;;;9.93;6.00;;;11.40;99.90;;;;;;5090918;28;20601;-78
2022/12/26 02:16:05;;;;;;;8.35;5.50;;;11.30;99.90;;;;;;5089284;28;20031;-77
2022/12/26 02:18:31;;;;;;;8.77;5.50;;;11.20;99.90;;;;;;5089367;28;20024;-75
2022/12/26 02:20:56;;;;;;;9.18;5.85;;;11.20;99.90;;;;;;5091396;28;20503;-77
2022/12/26 02:24:11;;;;;;;8.60;6.22;;;11.20;99.90;;;;;;5091595;28;20431;-77
2022/12/26 02:26:58;;;;;;;10.30;6.25;;;11.30;99.90;;;;;;5028474;28;20033;-75
2022/12/26 02:29:41;;;;;;;8.80;5.95;;;11.30;99.90;;;;;;5028248;28;20116;-77
2022/12/26 02:32:20;;;;;;;9.65;6.32;;;11.30;99.90;;;;;;5073080;28;20043;-77
2022/12/26 02:34:53;;;;;;;10.55;7.10;;;11.40;99.90;;;;;;5090316;28;20426;-77
2022/12/26 02:37:22;;;;;;;10.88;6.88;;;11.20;99.90;;;;;;5089435;28;20558;-77
2022/12/26 02:40:00;;;;;;;8.73;6.07;;;11.20;99.90;;;;;;5090639;28;20127;-76
2022/12/26 02:42:44;;;;;;;;;;;11.20;99.90;;;;;;5091222;28;20039;-75
2022/12/26 02:48:42;;;;;;;11.35;7.38;;;11.30;99.90;;;;;;5090432;28;20051;-77
2022/12/26 03:14:52;;;;;;;11.48;7.53;;;11.30;99.90;;;;;;5090609;28;20089;-77
2022/12/26 03:17:39;;;;;;;11.30;7.68;;;11.30;99.90;;;;;;5089516;28;20009;-77
2022/12/26 03:20:10;;;;;;;12.23;7.55;;;11.30;99.90;;;;;;5090229;28;20110;-76
2022/12/26 03:22:42;;;;;;;10.75;7.10;;;11.20;99.90;;;;;;5090288;28;20081;-77
2022/12/26 03:28:07;;;;;;;16.05;8.32;;;11.30;99.90;;;;;;5091767;28;20039;-75
2022/12/26 03:30:48;;;;;;;13.00;8.00;;;11.30;99.90;;;;;;5093846;28;20024;-75
2022/12/26 03:36:50;;;;;;;9.93;6.63;;;11.30;99.90;;;;;;5094212;28;20430;-77
2022/12/26 04:20:56;;;;;;;7.13;5.40;;;11.40;99.90;;;;;;5093108;28;20039;-77
2022/12/26 04:46:14;;;;;;;11.45;7.47;;;11.40;99.90;;;;;;5092484;28;20038;-77
2022/12/26 04:51:27;;;;;;;12.18;7.90;;;11.50;99.90;;;;;;5092523;28;20035;-79
2022/12/26 04:53:52;;;;;;;11.43;8.35;;;11.40;99.90;;;;;;5092041;28;20035;-77
2022/12/26 04:56:18;;;;;;;10.88;7.55;;;11.40;99.90;;;;;;5092677;28;20392;-78
2022/12/26 04:58:44;;;;;;;12.00;8.32;;;11.40;99.90;;;;;;5092308;28;20032;-77
2022/12/26 05:09:34;;;;;;;13.07;7.63;;;11.40;99.90;;;;;;5091989;28;20374;-77
2022/12/26 05:12:04;;;;;;;12.13;7.57;;;11.50;99.90;;;;;;5090267;28;20040;-76
2022/12/26 05:14:30;;;;;;;12.95;7.45;;;11.50;99.90;;;;;;5092272;28;20419;-76
2022/12/26 05:30:59;;;;;;;9.68;5.95;;;11.40;99.90;;;;;;5091867;28;20042;-77
2022/12/26 05:36:10;;;;;;;8.98;5.88;;;11.40;99.90;;;;;;5091250;28;20424;-77
2022/12/26 05:38:36;;;;;;;8.20;5.78;;;11.30;99.90;;;;;;5091694;28;20111;-77
2022/12/26 05:41:02;;;;;;;9.65;6.05;;;11.20;99.90;;;;;;5091520;28;20028;-76
2022/12/26 05:43:28;;;;;;;8.70;5.45;;;11.20;99.90;;;;;;5090299;28;20100;-77
2022/12/26 05:45:54;;;;;;;7.30;5.13;;;11.30;99.90;;;;;;5091427;28;20036;-77
2022/12/26 05:48:20;;;;;;;7.82;5.45;;;11.20;99.90;;;;;;5091462;28;20383;-76
2022/12/26 05:50:45;;;;;;;8.13;5.75;;;11.20;99.90;;;;;;5090978;28;20085;-78
2022/12/26 05:53:11;;;;;;;9.77;6.13;;;11.30;99.90;;;;;;5091406;28;20016;-77
2022/12/26 05:55:38;;;;;;;8.32;5.57;;;11.30;99.90;;;;;;5091274;28;20055;-77
2022/12/26 05:58:04;;;;;;;7.70;5.72;;;11.30;99.90;;;;;;5090587;28;20047;-77
2022/12/26 06:00:30;;;;;;;9.10;6.00;;;11.30;99.90;;;;;;5091380;28;20123;-76
2022/12/26 06:02:57;;;;;;;7.97;5.65;;;11.20;99.90;;;;;;5091133;28;20513;-76
2022/12/26 06:05:23;;;;;;;11.03;6.10;;;11.20;99.90;;;;;;5090625;28;20119;-77
2022/12/26 06:07:49;;;;;;;9.00;6.05;;;11.30;99.90;;;;;;5091353;28;20352;-77
2022/12/26 06:10:14;;;;;;;6.82;4.80;;;11.30;99.90;;;;;;5089905;28;20028;-76
2022/12/26 06:12:40;;;;;;;7.97;5.07;;;11.20;99.90;;;;;;5090966;28;20058;-76
2022/12/26 06:15:06;;;;;;;8.38;5.15;;;11.30;99.90;;;;;;5091216;28;20036;-78
2022/12/26 06:17:32;;;;;;;7.00;5.38;;;11.20;99.90;;;;;;5090362;28;20375;-77
2022/12/26 06:19:58;;;;;;;7.57;5.10;;;11.20;99.90;;;;;;5091084;28;20055;-77
2022/12/26 06:22:23;;;;;;;8.13;5.43;;;11.30;99.90;;;;;;5090759;28;20109;-77
2022/12/26 06:24:49;;;;;;;7.22;5.07;;;11.20;99.90;;;;;;5090738;28;20074;-77
2022/12/26 06:27:15;;;;;;;9.40;5.65;;;11.10;99.90;;;;;;5090598;28;20032;-75
2022/12/26 06:29:40;;;;;;;7.53;5.55;;;11.20;99.90;;;;;;5091189;28;20032;-77
2022/12/26 06:32:06;;;;;;;7.82;5.35;;;11.10;99.90;;;;;;5090586;28;20036;-75
2022/12/26 06:34:32;;;;;;;8.82;5.35;;;11.00;99.90;;;;;;5090543;28;20032;-77
2022/12/26 06:36:57;;;;;;;8.00;5.13;;;11.00;99.90;;;;;;5089312;28;20458;-76
2022/12/26 06:39:23;;;;;;;9.63;5.85;;;11.00;99.90;;;;;;5089480;28;20196;-77
2022/12/26 06:41:49;;;;;;;11.90;6.65;;;11.10;99.90;;;;;;5091184;28;20497;-77
2022/12/26 06:44:15;;;;;;;8.30;5.55;;;11.00;99.90;;;;;;5090889;28;20024;-76
2022/12/26 06:46:41;;;;;;;10.27;6.32;;;10.90;99.90;;;;;;5090644;28;20474;-78
2022/12/26 06:49:07;;;;;;;9.48;6.68;;;10.80;99.90;;;;;;5089372;28;20505;-76
2022/12/26 06:51:34;;;;;;;13.88;7.75;;;10.80;99.90;;;;;;5089357;28;20032;-77
2022/12/26 06:54:03;;;;;;;10.00;6.93;;;10.80;99.90;;;;;;5090712;28;20032;-77
2022/12/26 06:56:30;;;;;;;11.27;7.57;;;10.80;99.90;;;;;;5089497;28;20047;-77
2022/12/26 06:59:01;;;;;;;11.38;7.22;;;10.80;99.90;;;;;;5090451;28;20478;-76
2022/12/26 07:01:29;;;;;;;11.77;7.43;;;10.80;99.90;;;;;;5089329;28;20035;-78
2022/12/26 07:03:56;;;;;;;11.60;7.22;;;10.80;99.90;;;;;;5093368;28;20024;-76
2022/12/26 07:06:33;;;;;;;10.68;6.93;;;11.00;99.90;;;;;;5094584;28;20608;-77
2022/12/26 07:09:13;;;;;;;12.63;8.02;;;10.90;99.90;;;;;;5096842;28;20032;-77
2022/12/26 07:11:40;;;;;;;13.35;8.00;;;10.90;99.90;;;;;;5095096;28;20134;-76
2022/12/26 07:14:07;;;;;;;10.55;7.15;;;10.90;99.90;;;;;;5093177;28;20067;-77
2022/12/26 07:16:34;;;;;;;14.20;8.48;;;10.90;99.90;;;;;;5094287;28;20024;-77
2022/12/26 07:19:00;;;;;;;11.68;7.82;;;10.80;99.90;;;;;;5094115;28;20392;-76
2022/12/26 07:21:27;;;;;;;12.48;7.93;;;10.90;99.90;;;;;;5094229;28;20043;-76
2022/12/26 07:23:53;;;;;;;13.75;8.40;;;10.90;99.90;;;;;;5094036;28;20057;-76
2022/12/26 07:26:20;;;;;;;14.18;8.45;;;10.80;99.90;;;;;;5093689;28;20384;-77
2022/12/26 07:28:46;;;;;;;13.30;8.70;;;10.80;99.90;;;;;;5092955;28;20032;-76
2022/12/26 07:31:16;;;;;;;14.30;9.13;;;10.90;99.90;;;;;;5093821;28;20481;-77
2022/12/26 07:33:41;;;;;;;13.93;8.45;;;10.80;99.90;;;;;;5092609;28;20089;-75
2022/12/26 07:36:07;;;;;;;14.07;8.52;;;10.90;99.90;;;;;;5092613;28;20025;-76
2022/12/26 07:38:33;;;;;;;13.48;8.43;;;10.80;99.90;;;;;;5094324;28;20031;-77
2022/12/26 07:41:56;;;;;;;14.13;8.32;;;10.90;99.90;;;;;;5092889;28;20036;-77
2022/12/26 07:43:44;;;;;;;15.23;8.98;;;10.70;99.90;;;;;;5093702;28;20247;-77
2022/12/26 07:46:10;;;;;;;14.45;8.48;;;10.80;99.90;;;;;;5092181;28;20028;-77
2022/12/26 07:48:35;;;;;;;12.73;8.25;;;10.90;99.90;;;;;;5093765;28;20032;-76
2022/12/26 07:51:01;;;;;;;16.50;7.75;;;10.80;99.90;;;;;;5093812;28;20028;-76
2022/12/26 07:53:28;;;;;;;13.63;7.82;;;10.80;99.90;;;;;;5094089;28;20032;-78
2022/12/26 07:56:01;;;;;;;13.68;8.38;;;10.70;99.90;;;;;;5093642;28;20399;-78
2022/12/26 07:58:26;;;;;;;9.52;6.55;;;10.70;99.90;;;;;;5092477;28;20040;-77
2022/12/26 08:00:52;;;;;;;12.32;7.53;;;10.80;99.90;;;;;;5092346;28;20044;-77
2022/12/26 08:03:18;;;;;;;12.32;8.32;;;10.80;99.90;;;;;;5093191;28;20056;-77
2022/12/26 08:05:47;;;;;;;14.48;7.38;;;10.80;99.90;;;;;;5093726;28;20050;-76
2022/12/26 08:08:13;;;;;;;12.10;7.82;;;10.60;99.90;;;;;;5093674;28;20312;-77
2022/12/26 08:10:39;;;;;;;15.65;8.75;;;10.80;99.90;;;;;;5092589;28;20113;-77
2022/12/26 08:13:05;;;;;;;13.43;8.20;;;10.70;99.90;;;;;;5093099;28;20439;-78
2022/12/26 08:15:30;;;;;;;14.70;8.80;;;10.90;99.90;;;;;;5092206;28;20047;-76
2022/12/26 08:17:56;;;;;;;14.70;8.80;;;10.80;99.90;;;;;;5093658;28;20353;-78
2022/12/26 08:20:22;;;;;;;13.35;7.95;;;10.80;99.90;;;;;;5092656;28;20458;-76
2022/12/26 08:22:48;;;;;;;13.10;7.88;;;10.80;99.90;;;;;;5093343;28;20032;-76
2022/12/26 08:25:15;;;;;;;14.32;8.98;;;10.80;99.90;;;;;;5092901;28;20044;-78
2022/12/26 08:27:41;;;;;;;13.25;8.15;;;10.80;99.90;;;;;;5093156;28;20059;-78
2022/12/26 08:30:08;;;;;;;14.13;9.32;;;10.80;99.90;;;;;;5092084;28;20075;-78
2022/12/26 08:32:34;;;;;;;15.43;9.35;;;10.90;99.90;;;;;;5094163;28;20028;-78
2022/12/26 08:35:00;;;;;;;12.90;8.13;;;11.10;99.90;;;;;;5093779;28;20121;-77
2022/12/26 08:37:25;;;;;;;20.35;9.68;;;10.90;99.90;;;;;;5093540;28;20035;-77
2022/12/26 08:39:52;;;;;;;14.73;9.38;;;10.90;99.90;;;;;;5094172;28;20039;-77
2022/12/26 08:42:19;;;;;;;12.75;8.25;;;10.90;99.90;;;;;;5093538;28;20116;-76
2022/12/26 08:44:44;;;;;;;13.98;8.70;;;11.00;99.90;;;;;;5092180;28;20485;-77
2022/12/26 08:47:10;;;;;;;18.17;8.20;;;10.90;99.90;;;;;;5093724;28;20051;-78
2022/12/26 08:49:36;;;;;;;11.05;7.43;;;10.80;99.90;;;;;;5093469;28;20028;-78
2022/12/26 08:52:02;;;;;;;13.60;7.78;;;10.90;99.90;;;;;;5092521;28;20490;-78
2022/12/26 08:54:28;;;;;;;12.43;7.75;;;10.80;99.90;;;;;;5091486;28;20028;-76
2022/12/26 08:56:57;;;;;;;12.50;7.70;;;10.90;99.90;;;;;;5092528;28;20039;-77
2022/12/26 08:59:23;;;;;;;11.57;7.30;;;10.90;99.90;;;;;;5093498;28;20024;-78
2022/12/26 09:01:48;;;;;;;12.98;7.82;;;10.90;99.90;;;;;;5092524;28;20034;-78
2022/12/26 09:04:14;;;;;;;10.98;6.65;;;10.90;99.90;;;;;;5092637;28;20060;-78
2022/12/26 09:06:40;;;;;;;10.48;6.88;;;10.90;99.90;;;;;;5091327;28;20055;-78
2022/12/26 09:09:10;;;;;;;12.98;7.15;;;11.10;99.90;;;;;;5092214;28;20088;-77
2022/12/26 09:11:36;;;;;;;9.82;6.72;;;11.00;99.90;;;;;;5091688;28;20221;-76
2022/12/26 09:14:03;;;;;;;16.25;8.40;;;10.90;99.90;;;;;;5092463;28;20032;-78
2022/12/26 09:16:34;;;;;;;13.18;6.97;;;11.00;99.90;;;;;;5092548;28;20028;-79
2022/12/26 09:19:02;;;;;;;11.75;6.28;;;11.00;99.90;;;;;;5092593;28;20297;-77
2022/12/26 09:21:29;;;;;;;9.02;5.45;;;11.00;99.90;;;;;;5092341;28;20461;-78
2022/12/26 09:24:00;;;;;;;9.57;6.45;;;11.00;99.90;;;;;;5092445;28;20498;-79
2022/12/26 09:26:27;;;;;;;8.98;5.90;;;11.20;99.90;;;;;;5091673;28;20396;-78
2022/12/26 09:28:53;;;;;;;8.93;5.78;;;11.00;99.90;;;;;;5092183;28;20029;-78
2022/12/26 09:31:22;;;;;;;10.27;6.00;;;11.00;99.90;;;;;;5092220;28;20139;-78
2022/12/26 09:33:49;;;;;;;9.82;5.63;;;11.00;99.90;;;;;;5090962;28;20052;-77
2022/12/26 09:36:19;;;;;;;8.93;4.90;;;11.10;99.90;;;;;;5092029;28;20039;-77
2022/12/26 09:38:46;;;;;;;8.45;5.10;;;11.10;99.90;;;;;;5091802;28;20129;-77
2022/12/26 09:41:54;;;;;;;6.87;4.87;;;11.20;99.90;;;;;;5092121;28;20012;-78
2022/12/26 09:44:26;;;;;;;;;;;11.20;99.90;;;;;;5092378;28;20074;-78
2022/12/26 09:47:14;;;;;;;10.50;5.45;;;11.20;99.90;;;;;;5091662;28;19916;-78
2022/12/26 09:50:22;;;;;;;7.00;4.95;;;11.20;99.90;;;;;;5092161;28;20066;-78
2022/12/26 09:52:49;;;;;;;8.35;4.82;;;11.20;99.90;;;;;;5091571;28;20343;-78
2022/12/26 09:55:50;;;;;;;7.60;4.88;;;11.20;99.90;;;;;;5090482;28;20028;-78
2022/12/26 09:58:22;;;;;;;7.03;4.82;;;11.20;99.90;;;;;;5087583;28;20036;-77
2022/12/26 10:01:08;;;;;;;7.75;4.65;;;11.30;99.90;;;;;;5091879;28;20122;-78
2022/12/26 10:03:39;;;;;;;8.50;6.68;;;11.30;99.90;;;;;;5090532;28;20111;-78
2022/12/26 10:06:16;;;;;;;6.88;5.40;;;11.30;99.90;;;;;;5091599;28;20284;-78
2022/12/26 10:09:15;;;;;;;12.90;5.70;;;11.40;99.90;;;;;;5091090;28;20450;-79
2022/12/26 10:12:02;;;;;;;8.13;6.00;;;11.50;99.90;;;;;;5090881;28;20110;-79
2022/12/26 10:14:40;;;;;;;10.48;6.03;;;11.50;99.90;;;;;;5091374;28;20621;-78
2022/12/26 10:17:16;;;;;;;;;;;11.50;99.90;;;;;;5091828;28;20028;-77
2022/12/26 10:19:57;;;;;;;8.02;5.97;;;11.50;99.90;;;;;;5091201;28;19908;-77
2022/12/26 10:22:45;;;;;;;7.38;5.50;;;11.50;99.90;;;;;;5090165;28;20078;-77
2022/12/26 10:25:21;;;;;;;8.60;5.15;;;11.50;99.90;;;;;;5090389;28;20039;-78
2022/12/26 10:27:51;;;;;;;8.23;5.47;;;11.40;99.90;;;;;;5091266;28;20075;-78
2022/12/26 10:30:23;;;;;;;8.48;5.65;;;11.50;99.90;;;;;;5091051;28;20032;-78
2022/12/26 10:32:55;;;;;;;7.82;5.40;;;11.50;99.90;;;;;;5091789;28;20346;-76
2022/12/26 10:35:30;;;;;;;8.40;5.88;;;11.50;99.90;;;;;;5091349;28;20016;-78
2022/12/26 10:38:03;;;;;;;12.10;6.05;;;11.60;99.90;;;;;;5090464;28;20062;-78
2022/12/26 10:40:39;;;;;;;11.27;5.90;;;11.60;99.90;;;;;;5090045;28;20024;-79
2022/12/26 10:43:20;;;;;;;8.15;5.70;;;11.60;99.90;;;;;;5090149;28;20037;-77
2022/12/26 10:46:28;;;;;;;10.00;5.38;;;11.60;99.90;;;;;;5090538;28;20042;-79
2022/12/26 10:48:54;;;;;;;8.23;5.30;;;11.70;99.90;;;;;;5084490;28;20411;-78
2022/12/26 10:51:20;;;;;;;9.70;5.28;;;11.70;99.90;;;;;;5090812;28;20115;-78
2022/12/26 10:53:51;;;;;;;8.55;5.32;;;11.70;99.90;;;;;;5090675;28;20020;-78
2022/12/26 10:56:17;;;;;;;7.82;5.45;;;11.80;99.90;;;;;;5091079;28;20094;-79
2022/12/26 10:58:44;;;;;;;6.95;5.00;;;11.80;99.90;;;;;;5090855;28;20415;-78
2022/12/26 11:01:31;;;;;;;10.77;5.22;;;11.80;99.90;;;;;;5090691;28;20097;-78
2022/12/26 11:04:00;;;;;;;6.28;4.75;;;11.80;99.90;;;;;;5089644;28;20028;-77
2022/12/26 11:06:31;;;;;;;5.03;4.20;;;11.80;99.90;;;;;;5090930;28;20024;-78
2022/12/26 11:08:58;;;;;;;4.57;4.10;;;11.80;99.90;;;;;;5090917;28;20065;-78
2022/12/26 11:11:44;;;;;;;6.90;4.40;;;11.80;99.90;;;;;;5091076;28;20025;-78
2022/12/26 11:14:25;;;;;;;6.38;4.70;;;11.80;99.90;;;;;;5089631;28;20044;-78
2022/12/26 11:16:51;;;;;;;6.65;4.57;;;11.80;99.90;;;;;;5090645;28;20062;-79
2022/12/26 11:19:33;;;;;;;7.38;3.92;;;11.80;99.90;;;;;;5090612;28;20369;-77
2022/12/26 11:22:20;;;;;;;7.15;3.80;;;11.80;99.90;;;;;;5090753;28;20029;-79
2022/12/26 11:25:00;;;;;;;7.35;4.15;;;11.80;99.90;;;;;;5090686;28;20093;-77
2022/12/26 11:27:26;;;;;;;7.40;4.45;;;11.70;99.90;;;;;;5090804;28;20111;-78
2022/12/26 11:30:29;;;;;;;6.35;3.70;;;11.70;99.90;;;;;;5090438;28;20071;-77
2022/12/26 11:33:16;;;;;;;6.43;3.42;;;11.80;99.90;;;;;;5090052;28;20032;-79
2022/12/26 11:36:02;;;;;;;5.47;3.60;;;11.90;99.90;;;;;;5090623;28;20107;-78
2022/12/26 11:38:36;;;;;;;6.55;3.80;;;11.90;99.90;;;;;;5090749;28;20032;-78
2022/12/26 11:44:17;;;;;;;10.77;5.53;;;11.90;99.90;;;;;;5090300;28;20157;-78
2022/12/26 11:46:58;;;;;;;5.88;3.90;;;12.00;99.90;;;;;;5088815;28;20028;-79
2022/12/26 11:49:28;;;;;;;8.07;2.92;;;11.90;99.90;;;;;;5090471;28;20028;-79
2022/12/26 11:51:55;;;;;;;5.13;3.42;;;12.00;99.90;;;;;;5092684;28;20032;-78
2022/12/26 11:54:46;;;;;;;5.32;3.30;;;12.00;99.90;;;;;;5094083;28;20117;-78
2022/12/26 11:57:15;;;;;;;6.45;3.65;;;12.00;99.90;;;;;;5093425;28;20354;-78
2022/12/26 11:59:41;;;;;;;7.22;3.67;;;11.90;99.90;;;;;;5094120;28;20017;-79
2022/12/26 12:02:28;;;;;;;8.48;3.30;;;12.00;99.90;;;;;;5092430;28;20481;-78
2022/12/26 12:05:05;;;;;;;9.35;4.13;;;12.00;99.90;;;;;;5091915;28;20020;-77
2022/12/26 12:07:51;;;;;;;10.15;3.90;;;12.00;99.90;;;;;;5093079;28;20090;-78
2022/12/26 12:10:35;;;;;;;6.55;3.03;;;12.00;99.90;;;;;;5092748;28;20032;-78
2022/12/26 12:13:17;;;;;;;5.68;2.90;;;11.90;99.90;;;;;;5092914;28;20123;-78
2022/12/26 12:15:48;;;;;;;3.05;2.75;;;11.90;99.90;;;;;;5093001;28;20050;-77
2022/12/26 12:18:32;;;;;;;9.95;3.22;;;11.90;99.90;;;;;;5093049;28;20089;-78
2022/12/26 12:21:04;;;;;;;5.88;2.90;;;11.80;99.90;;;;;;5092948;28;20035;-77
2022/12/26 12:23:29;;;;;;;8.48;3.92;;;11.80;99.90;;;;;;5093237;28;20047;-77
2022/12/26 12:26:14;;;;;;;6.82;3.25;;;11.80;99.90;;;;;;5092715;28;20431;-76
2022/12/26 12:29:05;;;;;;;5.50;3.00;;;11.80;99.90;;;;;;5092481;28;20032;-77
2022/12/26 12:31:52;;;;;;;4.78;2.60;;;11.80;99.90;;;;;;5092458;28;20056;-77
2022/12/26 12:34:31;;;;;;;4.90;2.67;;;11.80;99.90;;;;;;5092445;28;20028;-77
2022/12/26 12:37:03;;;;;;;10.45;2.90;;;11.80;99.90;;;;;;5092597;28;20086;-76
2022/12/26 12:39:31;;;;;;;7.72;2.50;;;11.80;99.90;;;;;;5092491;28;20052;-77
2022/12/26 12:42:29;;;;;;;8.02;2.65;;;11.80;99.90;;;;;;5092521;28;20031;-76
2022/12/26 12:45:17;;;;;;;7.45;2.38;;;11.80;99.90;;;;;;5092277;28;20050;-77
2022/12/26 12:48:31;;;;;;;4.88;2.25;;;11.90;99.90;;;;;;5092698;28;20303;-78
2022/12/26 12:51:24;;;;;;;4.68;2.95;;;11.90;99.90;;;;;;5072834;28;20051;-75
2022/12/26 12:54:17;;;;;;;8.80;3.42;;;12.00;99.90;;;;;;5092129;28;20063;-76
2022/12/26 12:57:01;;;;;;;11.27;6.85;;;11.90;99.90;;;;;;5092330;28;20123;-77
2022/12/26 12:59:44;;;;;;;17.50;8.75;;;11.90;99.90;;;;;;5092095;28;20053;-77
2022/12/26 13:02:19;;;;;;;9.05;3.10;;;12.00;99.90;;;;;;5091717;28;20020;-79
2022/12/26 13:04:50;;;;;;;6.18;2.70;;;12.00;99.90;;;;;;5091912;28;20039;-77
2022/12/26 13:07:24;;;;;;;7.95;2.53;;;12.00;99.90;;;;;;5091931;28;20115;-79
2022/12/26 13:10:02;;;;;;;4.25;2.85;;;12.00;99.90;;;;;;5091593;28;20040;-77
2022/12/26 13:12:37;;;;;;;9.02;3.15;;;12.00;99.90;;;;;;5091205;28;20036;-77
2022/12/26 13:15:24;;;;;;;3.65;2.78;;;12.00;99.90;;;;;;5091797;28;20020;-78
2022/12/26 13:17:53;;;;;;;4.55;2.50;;;12.00;99.90;;;;;;5091505;28;20370;-77
2022/12/26 13:20:46;;;;;;;5.82;2.40;;;12.00;99.90;;;;;;5092065;28;20028;-80
2022/12/26 13:26:17;;;;;;;6.45;2.50;;;12.20;99.90;;;;;;5091641;28;20050;-77
2022/12/26 13:29:06;;;;;;;5.38;2.35;;;12.10;99.90;;;;;;5090377;28;20025;-77
2022/12/26 13:31:34;;;;;;;4.55;2.25;;;12.10;99.90;;;;;;5084797;28;20040;-79
2022/12/26 13:34:01;;;;;;;12.90;4.03;;;12.10;99.90;;;;;;5091535;28;20051;-77
2022/12/26 13:36:36;;;;;;;3.10;1.98;;;12.10;99.90;;;;;;5091265;28;20056;-76
2022/12/26 13:39:11;;;;;;;4.68;2.50;;;12.00;99.90;;;;;;5089940;28;20031;-78
2022/12/26 13:44:31;;;;;;;8.45;1.90;;;12.00;99.90;;;;;;5091373;28;20141;-76
2022/12/26 13:46:58;;;;;;;2.45;2.08;;;11.90;99.90;;;;;;5091456;28;20036;-77
2022/12/26 13:49:27;;;;;;;4.72;2.38;;;12.00;99.90;;;;;;5089912;28;20070;-76
2022/12/26 13:51:58;;;;;;;8.32;3.90;;;11.90;99.90;;;;;;5090752;28;20032;-77
2022/12/26 13:54:25;;;;;;;5.88;2.53;;;11.90;99.90;;;;;;5090911;28;20062;-78
2022/12/26 13:57:20;;;;;;;4.68;2.50;;;11.70;99.90;;;;;;5090743;28;20020;-76
2022/12/26 14:00:20;;;;;;;5.80;2.40;;;11.70;99.90;;;;;;5071987;28;20028;-78
2022/12/26 14:03:18;;;;;;;4.60;2.08;;;11.50;99.90;;;;;;5090577;28;20028;-78
2022/12/26 14:06:08;;;;;;;3.40;1.77;;;11.20;99.90;;;;;;5089525;28;20476;-77
2022/12/26 14:09:17;;;;;;;3.17;1.67;;;11.10;99.90;;;;;;5091322;28;20024;-76
2022/12/26 14:12:01;;;;;;;3.28;1.75;;;11.10;99.90;;;;;;5089912;28;20530;-76
2022/12/26 14:14:58;;;;;;;11.05;2.17;;;11.00;99.90;;;;;;5090856;28;20119;-76
2022/12/26 14:17:49;;;;;;;3.80;1.83;;;10.90;99.90;;;;;;5090922;28;20466;-77
2022/12/26 14:20:39;;;;;;;2.97;1.80;;;10.80;99.90;;;;;;5090942;28;20063;-76
2022/12/26 14:23:57;;;;;;;5.20;1.63;;;10.90;99.90;;;;;;5090755;28;20024;-76
2022/12/26 14:26:39;;;;;;;3.50;1.33;;;10.90;99.90;;;;;;5051201;28;20055;-76
2022/12/26 14:29:40;;;;;;;5.22;1.70;;;10.90;99.90;;;;;;5088149;28;20024;-75
2022/12/26 14:32:24;;;;;;;6.30;1.75;;;10.80;99.90;;;;;;5089856;28;20523;-77
2022/12/26 14:35:07;;;;;;;3.28;1.33;;;10.80;99.90;;;;;;5090162;28;20458;-74
2022/12/26 14:37:58;;;;;;;6.97;1.98;;;10.60;99.90;;;;;;5090452;28;20024;-77
2022/12/26 14:40:33;;;;;;;5.30;1.63;;;10.60;99.90;;;;;;5089296;28;20032;-76
2022/12/26 14:43:29;;;;;;;3.80;0.80;;;10.40;99.90;;;;;;5090505;28;20032;-77
2022/12/26 14:45:56;;;;;;;10.13;1.25;;;10.30;99.90;;;;;;5089690;28;20105;-77
2022/12/26 14:48:21;;;;;;;8.05;1.65;;;10.20;99.90;;;;;;5090397;28;20024;-77
2022/12/26 14:50:52;;;;;;;6.45;1.08;;;10.20;99.90;;;;;;5089177;28;20131;-76
2022/12/26 14:53:33;;;;;;;7.32;1.52;;;9.90;99.90;;;;;;5089924;28;20353;-75
2022/12/26 14:56:09;;;;;;;10.68;2.25;;;9.90;99.90;;;;;;5089028;28;20453;-76
2022/12/26 14:58:40;;;;;;;5.72;1.38;;;9.80;99.90;;;;;;5090427;28;20043;-77
2022/12/26 15:01:11;;;;;;;3.83;1.02;;;9.90;99.90;;;;;;5089089;28;20115;-77
2022/12/26 15:03:43;;;;;;;9.38;1.70;;;9.80;99.90;;;;;;5090092;28;20028;-77
2022/12/26 15:06:18;;;;;;;7.60;1.60;;;9.70;99.90;;;;;;5090057;28;20028;-75
2022/12/26 15:08:52;;;;;;;7.60;1.88;;;9.70;99.90;;;;;;5089005;28;20021;-78
2022/12/26 15:11:52;;;;;;;7.32;1.33;;;9.60;99.90;;;;;;5090404;28;20016;-75
2022/12/26 15:14:47;;;;;;;8.45;1.58;;;9.60;99.90;;;;;;5090138;28;20126;-77
2022/12/26 15:17:25;;;;;;;6.60;1.50;;;9.70;99.90;;;;;;5089925;28;20028;-77
2022/12/26 15:20:08;;;;;;;4.05;1.42;;;9.70;99.90;;;;;;5089878;28;20043;-76
2022/12/26 15:22:56;;;;;;;7.18;1.60;;;9.60;99.90;;;;;;5089854;28;20675;-76
2022/12/26 15:25:40;;;;;;;7.22;1.92;;;9.50;99.90;;;;;;5092529;28;20117;-77
2022/12/26 15:28:18;;;;;;;10.55;1.85;;;9.50;99.90;;;;;;5093747;28;20547;-77
2022/12/26 15:30:53;;;;;;;5.22;1.20;;;9.40;99.90;;;;;;5093830;28;20094;-77
2022/12/26 15:33:39;;;;;;;13.45;1.73;;;9.30;99.90;;;;;;5093930;28;20024;-77
2022/12/26 15:36:49;;;;;;;8.85;2.70;;;9.30;99.90;;;;;;5092428;28;20066;-77